sensor_id;sensor_type;location;lat;lon;timestamp;P1;durP1;ratioP1;P2;durP2;ratioP2
53907;SDS011;40469;47.998;7.794;2023-04-01T00:00:56;424.63;;;250.20;;
53907;SDS011;40469;47.998;7.794;2023-04-01T00:03:23;426.27;;;243.13;;
53907;SDS011;40469;47.998;7.794;2023-04-01T00:05:49;442.55;;;258.58;;
53907;SDS011;40469;47.998;7.794;2023-04-01T00:08:15;423.63;;;233.75;;
53907;SDS011;40469;47.998;7.794;2023-04-01T00:10:41;440.67;;;257.05;;
53907;SDS011;40469;47.998;7.794;2023-04-01T00:13:06;425.92;;;249.38;;
53907;SDS011;40469;47.998;7.794;2023-04-01T00:15:32;444.40;;;250.45;;
53907;SDS011;40469;47.998;7.794;2023-04-01T00:17:57;468.20;;;260.42;;
53907;SDS011;40469;47.998;7.794;2023-04-01T00:20:23;447.58;;;247.73;;
53907;SDS011;40469;47.998;7.794;2023-04-01T00:22:49;461.10;;;261.33;;
53907;SDS011;40469;47.998;7.794;2023-04-01T00:25:15;455.55;;;264.92;;
53907;SDS011;40469;47.998;7.794;2023-04-01T00:27:41;444.38;;;239.60;;
53907;SDS011;40469;47.998;7.794;2023-04-01T00:30:06;441.55;;;239.57;;
53907;SDS011;40469;47.998;7.794;2023-04-01T00:32:33;444.40;;;237.70;;
53907;SDS011;40469;47.998;7.794;2023-04-01T00:34:59;457.80;;;257.20;;
53907;SDS011;40469;47.998;7.794;2023-04-01T00:37:25;462.13;;;252.95;;
53907;SDS011;40469;47.998;7.794;2023-04-01T00:39:51;445.13;;;236.25;;
53907;SDS011;40469;47.998;7.794;2023-04-01T00:42:16;454.52;;;252.98;;
53907;SDS011;40469;47.998;7.794;2023-04-01T00:44:44;454.60;;;248.88;;
53907;SDS011;40469;47.998;7.794;2023-04-01T00:47:12;452.30;;;251.77;;
53907;SDS011;40469;47.998;7.794;2023-04-01T00:49:40;438.27;;;233.20;;
53907;SDS011;40469;47.998;7.794;2023-04-01T00:52:10;453.27;;;259.48;;
53907;SDS011;40469;47.998;7.794;2023-04-01T00:54:37;437.67;;;252.43;;
53907;SDS011;40469;47.998;7.794;2023-04-01T00:57:12;451.08;;;268.63;;
53907;SDS011;40469;47.998;7.794;2023-04-01T00:59:44;436.23;;;242.05;;
53907;SDS011;40469;47.998;7.794;2023-04-01T01:02:13;431.25;;;231.25;;
53907;SDS011;40469;47.998;7.794;2023-04-01T01:04:39;444.60;;;248.73;;
53907;SDS011;40469;47.998;7.794;2023-04-01T01:18:20;445.77;;;244.85;;
53907;SDS011;40469;47.998;7.794;2023-04-01T01:24:13;433.88;;;242.20;;
53907;SDS011;40469;47.998;7.794;2023-04-01T01:26:51;447.23;;;250.90;;
53907;SDS011;40469;47.998;7.794;2023-04-01T01:29:25;448.15;;;254.80;;
53907;SDS011;40469;47.998;7.794;2023-04-01T01:37:16;444.58;;;247.07;;
53907;SDS011;40469;47.998;7.794;2023-04-01T01:39:54;428.05;;;231.55;;
53907;SDS011;40469;47.998;7.794;2023-04-01T01:42:23;446.00;;;249.02;;
53907;SDS011;40469;47.998;7.794;2023-04-01T01:44:51;427.48;;;235.10;;
53907;SDS011;40469;47.998;7.794;2023-04-01T01:47:18;422.27;;;236.43;;
53907;SDS011;40469;47.998;7.794;2023-04-01T01:49:46;439.23;;;251.00;;
53907;SDS011;40469;47.998;7.794;2023-04-01T01:52:12;423.90;;;238.65;;
53907;SDS011;40469;47.998;7.794;2023-04-01T01:54:51;438.55;;;255.23;;
53907;SDS011;40469;47.998;7.794;2023-04-01T01:57:20;439.98;;;253.63;;
53907;SDS011;40469;47.998;7.794;2023-04-01T01:59:51;426.10;;;239.05;;
53907;SDS011;40469;47.998;7.794;2023-04-01T02:02:19;428.20;;;239.40;;
53907;SDS011;40469;47.998;7.794;2023-04-01T02:04:46;425.08;;;238.82;;
53907;SDS011;40469;47.998;7.794;2023-04-01T02:07:14;422.05;;;239.20;;
53907;SDS011;40469;47.998;7.794;2023-04-01T02:09:47;430.37;;;253.33;;
53907;SDS011;40469;47.998;7.794;2023-04-01T02:12:13;437.65;;;260.83;;
53907;SDS011;40469;47.998;7.794;2023-04-01T02:14:50;419.35;;;242.60;;
53907;SDS011;40469;47.998;7.794;2023-04-01T02:17:20;421.67;;;238.95;;
53907;SDS011;40469;47.998;7.794;2023-04-01T02:19:57;439.65;;;264.10;;
53907;SDS011;40469;47.998;7.794;2023-04-01T02:22:28;426.00;;;239.85;;
53907;SDS011;40469;47.998;7.794;2023-04-01T02:24:58;415.05;;;240.00;;
53907;SDS011;40469;47.998;7.794;2023-04-01T02:27:26;415.50;;;237.32;;
53907;SDS011;40469;47.998;7.794;2023-04-01T02:29:51;419.10;;;239.70;;
53907;SDS011;40469;47.998;7.794;2023-04-01T02:32:18;429.98;;;261.25;;
53907;SDS011;40469;47.998;7.794;2023-04-01T02:34:46;431.10;;;259.55;;
53907;SDS011;40469;47.998;7.794;2023-04-01T02:37:12;414.80;;;237.43;;
53907;SDS011;40469;47.998;7.794;2023-04-01T02:39:39;436.33;;;277.92;;
53907;SDS011;40469;47.998;7.794;2023-04-01T02:42:05;428.80;;;253.43;;
53907;SDS011;40469;47.998;7.794;2023-04-01T02:44:31;416.45;;;232.88;;
53907;SDS011;40469;47.998;7.794;2023-04-01T02:46:56;435.65;;;254.27;;
53907;SDS011;40469;47.998;7.794;2023-04-01T02:49:21;411.13;;;233.75;;
53907;SDS011;40469;47.998;7.794;2023-04-01T02:51:47;430.67;;;259.23;;
53907;SDS011;40469;47.998;7.794;2023-04-01T02:54:12;417.30;;;233.05;;
53907;SDS011;40469;47.998;7.794;2023-04-01T02:56:37;417.52;;;235.95;;
53907;SDS011;40469;47.998;7.794;2023-04-01T02:59:03;421.90;;;251.10;;
53907;SDS011;40469;47.998;7.794;2023-04-01T03:01:28;413.60;;;232.10;;
53907;SDS011;40469;47.998;7.794;2023-04-01T03:03:54;428.65;;;242.55;;
53907;SDS011;40469;47.998;7.794;2023-04-01T03:06:19;414.15;;;229.98;;
53907;SDS011;40469;47.998;7.794;2023-04-01T03:08:45;425.60;;;247.07;;
53907;SDS011;40469;47.998;7.794;2023-04-01T03:11:10;412.65;;;232.45;;
53907;SDS011;40469;47.998;7.794;2023-04-01T03:13:36;416.60;;;230.50;;
53907;SDS011;40469;47.998;7.794;2023-04-01T03:16:01;432.00;;;248.63;;
53907;SDS011;40469;47.998;7.794;2023-04-01T03:18:27;433.10;;;250.23;;
53907;SDS011;40469;47.998;7.794;2023-04-01T03:20:53;426.17;;;252.20;;
53907;SDS011;40469;47.998;7.794;2023-04-01T03:23:18;414.77;;;235.68;;
53907;SDS011;40469;47.998;7.794;2023-04-01T03:25:46;423.80;;;243.90;;
53907;SDS011;40469;47.998;7.794;2023-04-01T03:28:11;419.33;;;241.13;;
53907;SDS011;40469;47.998;7.794;2023-04-01T03:30:38;427.58;;;256.98;;
53907;SDS011;40469;47.998;7.794;2023-04-01T03:33:04;411.40;;;236.15;;
53907;SDS011;40469;47.998;7.794;2023-04-01T03:35:29;411.08;;;235.13;;
53907;SDS011;40469;47.998;7.794;2023-04-01T03:37:55;411.00;;;237.80;;
53907;SDS011;40469;47.998;7.794;2023-04-01T03:40:21;423.88;;;247.65;;
53907;SDS011;40469;47.998;7.794;2023-04-01T03:42:47;421.40;;;244.90;;
53907;SDS011;40469;47.998;7.794;2023-04-01T03:45:12;426.85;;;252.25;;
53907;SDS011;40469;47.998;7.794;2023-04-01T03:47:38;421.20;;;240.02;;
53907;SDS011;40469;47.998;7.794;2023-04-01T03:50:05;420.35;;;243.80;;
53907;SDS011;40469;47.998;7.794;2023-04-01T03:52:31;411.92;;;230.02;;
53907;SDS011;40469;47.998;7.794;2023-04-01T03:54:57;420.77;;;240.02;;
53907;SDS011;40469;47.998;7.794;2023-04-01T03:57:23;423.52;;;241.65;;
53907;SDS011;40469;47.998;7.794;2023-04-01T03:59:48;419.95;;;257.17;;
53907;SDS011;40469;47.998;7.794;2023-04-01T04:02:14;413.63;;;237.20;;
53907;SDS011;40469;47.998;7.794;2023-04-01T04:04:39;414.75;;;238.90;;
53907;SDS011;40469;47.998;7.794;2023-04-01T04:07:05;425.30;;;258.98;;
53907;SDS011;40469;47.998;7.794;2023-04-01T04:09:31;420.52;;;256.70;;
53907;SDS011;40469;47.998;7.794;2023-04-01T04:11:57;409.48;;;234.77;;
53907;SDS011;40469;47.998;7.794;2023-04-01T04:14:22;421.70;;;249.55;;
53907;SDS011;40469;47.998;7.794;2023-04-01T04:16:48;422.88;;;259.23;;
53907;SDS011;40469;47.998;7.794;2023-04-01T04:19:13;407.20;;;230.55;;
53907;SDS011;40469;47.998;7.794;2023-04-01T04:21:39;401.73;;;230.40;;
53907;SDS011;40469;47.998;7.794;2023-04-01T04:24:05;409.27;;;237.73;;
53907;SDS011;40469;47.998;7.794;2023-04-01T04:26:31;403.70;;;221.50;;
53907;SDS011;40469;47.998;7.794;2023-04-01T04:28:56;404.80;;;223.35;;
53907;SDS011;40469;47.998;7.794;2023-04-01T04:31:22;403.98;;;224.98;;
53907;SDS011;40469;47.998;7.794;2023-04-01T04:33:49;423.70;;;252.27;;
53907;SDS011;40469;47.998;7.794;2023-04-01T04:36:16;415.83;;;247.18;;
53907;SDS011;40469;47.998;7.794;2023-04-01T04:38:42;407.23;;;238.13;;
53907;SDS011;40469;47.998;7.794;2023-04-01T04:41:08;402.10;;;231.77;;
53907;SDS011;40469;47.998;7.794;2023-04-01T04:43:37;408.02;;;233.40;;
53907;SDS011;40469;47.998;7.794;2023-04-01T04:46:04;403.27;;;233.65;;
53907;SDS011;40469;47.998;7.794;2023-04-01T04:48:31;419.95;;;248.23;;
53907;SDS011;40469;47.998;7.794;2023-04-01T04:50:56;417.25;;;253.35;;
53907;SDS011;40469;47.998;7.794;2023-04-01T04:53:23;403.85;;;227.05;;
53907;SDS011;40469;47.998;7.794;2023-04-01T04:55:50;414.42;;;244.50;;
53907;SDS011;40469;47.998;7.794;2023-04-01T04:58:15;402.67;;;232.70;;
53907;SDS011;40469;47.998;7.794;2023-04-01T05:00:41;417.80;;;247.65;;
53907;SDS011;40469;47.998;7.794;2023-04-01T05:03:07;401.75;;;238.75;;
53907;SDS011;40469;47.998;7.794;2023-04-01T05:05:33;416.23;;;257.42;;
53907;SDS011;40469;47.998;7.794;2023-04-01T05:07:59;410.30;;;242.25;;
53907;SDS011;40469;47.998;7.794;2023-04-01T05:10:24;415.45;;;254.75;;
53907;SDS011;40469;47.998;7.794;2023-04-01T05:12:50;395.50;;;236.13;;
53907;SDS011;40469;47.998;7.794;2023-04-01T05:15:15;409.95;;;239.10;;
53907;SDS011;40469;47.998;7.794;2023-04-01T05:17:40;409.80;;;252.27;;
53907;SDS011;40469;47.998;7.794;2023-04-01T05:20:06;393.23;;;234.32;;
53907;SDS011;40469;47.998;7.794;2023-04-01T05:22:32;411.35;;;248.35;;
53907;SDS011;40469;47.998;7.794;2023-04-01T05:24:58;397.83;;;234.50;;
53907;SDS011;40469;47.998;7.794;2023-04-01T05:27:23;413.05;;;269.67;;
53907;SDS011;40469;47.998;7.794;2023-04-01T05:29:48;402.92;;;242.65;;
53907;SDS011;40469;47.998;7.794;2023-04-01T05:32:14;407.48;;;243.82;;
53907;SDS011;40469;47.998;7.794;2023-04-01T05:34:39;402.60;;;248.65;;
53907;SDS011;40469;47.998;7.794;2023-04-01T05:37:05;404.08;;;246.63;;
53907;SDS011;40469;47.998;7.794;2023-04-01T05:39:35;387.42;;;228.98;;
53907;SDS011;40469;47.998;7.794;2023-04-01T05:42:01;393.48;;;229.23;;
53907;SDS011;40469;47.998;7.794;2023-04-01T05:44:26;389.40;;;228.00;;
53907;SDS011;40469;47.998;7.794;2023-04-01T05:46:52;394.10;;;240.30;;
53907;SDS011;40469;47.998;7.794;2023-04-01T05:49:17;388.75;;;226.48;;
53907;SDS011;40469;47.998;7.794;2023-04-01T05:51:42;405.15;;;249.32;;
53907;SDS011;40469;47.998;7.794;2023-04-01T05:54:07;397.15;;;258.80;;
53907;SDS011;40469;47.998;7.794;2023-04-01T05:56:33;379.02;;;231.13;;
53907;SDS011;40469;47.998;7.794;2023-04-01T05:58:58;389.42;;;234.65;;
53907;SDS011;40469;47.998;7.794;2023-04-01T06:01:23;403.25;;;255.85;;
53907;SDS011;40469;47.998;7.794;2023-04-01T06:03:49;380.42;;;231.02;;
53907;SDS011;40469;47.998;7.794;2023-04-01T06:06:15;400.50;;;253.95;;
53907;SDS011;40469;47.998;7.794;2023-04-01T06:08:45;381.67;;;231.50;;
53907;SDS011;40469;47.998;7.794;2023-04-01T06:18:54;404.85;;;260.92;;
53907;SDS011;40469;47.998;7.794;2023-04-01T06:21:50;395.17;;;255.43;;
53907;SDS011;40469;47.998;7.794;2023-04-01T06:29:57;404.45;;;258.83;;
53907;SDS011;40469;47.998;7.794;2023-04-01T06:32:40;379.70;;;232.38;;
53907;SDS011;40469;47.998;7.794;2023-04-01T06:35:17;383.67;;;239.57;;
53907;SDS011;40469;47.998;7.794;2023-04-01T06:40:47;382.05;;;234.02;;
53907;SDS011;40469;47.998;7.794;2023-04-01T06:54:53;368.60;;;230.73;;
53907;SDS011;40469;47.998;7.794;2023-04-01T06:57:28;400.73;;;254.05;;
53907;SDS011;40469;47.998;7.794;2023-04-01T06:59:59;394.88;;;253.45;;
53907;SDS011;40469;47.998;7.794;2023-04-01T07:02:33;394.67;;;256.92;;
53907;SDS011;40469;47.998;7.794;2023-04-01T07:05:04;385.30;;;259.67;;
53907;SDS011;40469;47.998;7.794;2023-04-01T07:07:35;380.30;;;243.23;;
53907;SDS011;40469;47.998;7.794;2023-04-01T07:10:11;392.70;;;260.58;;
53907;SDS011;40469;47.998;7.794;2023-04-01T07:15:18;394.05;;;259.92;;
53907;SDS011;40469;47.998;7.794;2023-04-01T07:17:51;387.30;;;260.00;;
53907;SDS011;40469;47.998;7.794;2023-04-01T07:20:25;388.10;;;263.98;;
53907;SDS011;40469;47.998;7.794;2023-04-01T07:22:56;396.02;;;263.67;;
53907;SDS011;40469;47.998;7.794;2023-04-01T07:25:43;362.60;;;236.48;;
53907;SDS011;40469;47.998;7.794;2023-04-01T07:28:14;370.40;;;234.88;;
53907;SDS011;40469;47.998;7.794;2023-04-01T07:33:24;356.80;;;231.70;;
53907;SDS011;40469;47.998;7.794;2023-04-01T07:36:16;387.92;;;255.65;;
53907;SDS011;40469;47.998;7.794;2023-04-01T07:44:43;369.23;;;233.15;;
53907;SDS011;40469;47.998;7.794;2023-04-01T07:58:16;377.20;;;275.90;;
53907;SDS011;40469;47.998;7.794;2023-04-01T08:06:38;364.55;;;239.68;;
53907;SDS011;40469;47.998;7.794;2023-04-01T08:17:58;351.92;;;239.10;;
53907;SDS011;40469;47.998;7.794;2023-04-01T08:23:30;375.00;;;264.02;;
53907;SDS011;40469;47.998;7.794;2023-04-01T08:28:37;352.90;;;238.77;;
53907;SDS011;40469;47.998;7.794;2023-04-01T08:31:53;351.80;;;240.85;;
53907;SDS011;40469;47.998;7.794;2023-04-01T08:34:03;367.75;;;241.32;;
53907;SDS011;40469;47.998;7.794;2023-04-01T08:36:34;348.98;;;236.10;;
53907;SDS011;40469;47.998;7.794;2023-04-01T08:39:06;387.60;;;272.73;;
53907;SDS011;40469;47.998;7.794;2023-04-01T08:52:36;388.75;;;272.30;;
53907;SDS011;40469;47.998;7.794;2023-04-01T09:06:12;382.23;;;275.92;;
53907;SDS011;40469;47.998;7.794;2023-04-01T09:14:38;359.17;;;247.50;;
53907;SDS011;40469;47.998;7.794;2023-04-01T09:20:02;354.33;;;270.63;;
53907;SDS011;40469;47.998;7.794;2023-04-01T09:30:38;373.15;;;292.77;;
53907;SDS011;40469;47.998;7.794;2023-04-01T09:38:29;380.83;;;280.83;;
53907;SDS011;40469;47.998;7.794;2023-04-01T09:49:13;389.03;;;251.93;;
53907;SDS011;40469;47.998;7.794;2023-04-01T09:57:16;459.45;;;271.70;;
53907;SDS011;40469;47.998;7.794;2023-04-01T10:12:13;491.25;;;275.83;;
53907;SDS011;40469;47.998;7.794;2023-04-01T10:17:52;319.15;;;249.25;;
53907;SDS011;40469;47.998;7.794;2023-04-01T10:34:01;317.42;;;258.65;;
53907;SDS011;40469;47.998;7.794;2023-04-01T10:36:54;315.38;;;257.05;;
53907;SDS011;40469;47.998;7.794;2023-04-01T10:39:30;316.75;;;252.45;;
53907;SDS011;40469;47.998;7.794;2023-04-01T10:47:53;345.38;;;278.67;;
53907;SDS011;40469;47.998;7.794;2023-04-01T10:53:32;341.08;;;245.77;;
53907;SDS011;40469;47.998;7.794;2023-04-01T11:10:54;376.52;;;273.92;;
53907;SDS011;40469;47.998;7.794;2023-04-01T11:13:59;470.55;;;271.13;;
53907;SDS011;40469;47.998;7.794;2023-04-01T11:22:22;461.98;;;268.25;;
53907;SDS011;40469;47.998;7.794;2023-04-01T11:25:20;316.00;;;244.27;;
53907;SDS011;40469;47.998;7.794;2023-04-01T11:33:54;389.38;;;255.35;;
53907;SDS011;40469;47.998;7.794;2023-04-01T11:36:37;424.02;;;262.23;;
53907;SDS011;40469;47.998;7.794;2023-04-01T11:39:27;506.63;;;306.55;;
53907;SDS011;40469;47.998;7.794;2023-04-01T11:42:20;480.60;;;284.80;;
53907;SDS011;40469;47.998;7.794;2023-04-01T11:53:42;447.60;;;273.17;;
53907;SDS011;40469;47.998;7.794;2023-04-01T11:59:33;341.38;;;257.05;;
53907;SDS011;40469;47.998;7.794;2023-04-01T12:05:13;349.60;;;279.25;;
53907;SDS011;40469;47.998;7.794;2023-04-01T12:11:00;429.90;;;289.45;;
53907;SDS011;40469;47.998;7.794;2023-04-01T12:13:47;437.77;;;287.13;;
53907;SDS011;40469;47.998;7.794;2023-04-01T12:18:52;481.73;;;302.70;;
53907;SDS011;40469;47.998;7.794;2023-04-01T12:46:25;312.80;;;258.52;;
53907;SDS011;40469;47.998;7.794;2023-04-01T12:51:30;404.95;;;272.73;;
53907;SDS011;40469;47.998;7.794;2023-04-01T13:19:59;296.25;;;253.75;;
53907;SDS011;40469;47.998;7.794;2023-04-01T13:23:33;291.77;;;254.10;;
53907;SDS011;40469;47.998;7.794;2023-04-01T13:25:40;293.63;;;258.88;;
53907;SDS011;40469;47.998;7.794;2023-04-01T13:39:23;298.27;;;266.13;;
53907;SDS011;40469;47.998;7.794;2023-04-01T13:44:54;330.35;;;292.23;;
53907;SDS011;40469;47.998;7.794;2023-04-01T14:03:32;360.08;;;305.88;;
53907;SDS011;40469;47.998;7.794;2023-04-01T14:09:22;332.17;;;300.13;;
53907;SDS011;40469;47.998;7.794;2023-04-01T14:17:13;347.90;;;312.80;;
53907;SDS011;40469;47.998;7.794;2023-04-01T14:28:48;361.75;;;325.92;;
53907;SDS011;40469;47.998;7.794;2023-04-01T14:45:59;339.92;;;306.45;;
53907;SDS011;40469;47.998;7.794;2023-04-01T14:48:32;298.65;;;254.43;;
53907;SDS011;40469;47.998;7.794;2023-04-01T14:54:03;290.48;;;257.83;;
53907;SDS011;40469;47.998;7.794;2023-04-01T14:56:48;289.55;;;257.98;;
53907;SDS011;40469;47.998;7.794;2023-04-01T15:02:01;320.70;;;286.52;;
53907;SDS011;40469;47.998;7.794;2023-04-01T15:04:44;295.20;;;262.65;;
53907;SDS011;40469;47.998;7.794;2023-04-01T15:07:21;336.58;;;303.77;;
53907;SDS011;40469;47.998;7.794;2023-04-01T15:09:54;325.15;;;291.48;;
53907;SDS011;40469;47.998;7.794;2023-04-01T15:17:58;336.92;;;304.33;;
53907;SDS011;40469;47.998;7.794;2023-04-01T15:23:45;298.60;;;267.10;;
53907;SDS011;40469;47.998;7.794;2023-04-01T15:32:05;473.60;;;313.50;;
53907;SDS011;40469;47.998;7.794;2023-04-01T15:45:16;412.63;;;295.92;;
53907;SDS011;40469;47.998;7.794;2023-04-01T15:48:14;455.15;;;282.30;;
53907;SDS011;40469;47.998;7.794;2023-04-01T16:01:38;477.45;;;298.38;;
53907;SDS011;40469;47.998;7.794;2023-04-01T16:15:39;452.83;;;282.92;;
53907;SDS011;40469;47.998;7.794;2023-04-01T16:18:39;442.73;;;297.45;;
53907;SDS011;40469;47.998;7.794;2023-04-01T16:21:14;288.40;;;258.55;;
53907;SDS011;40469;47.998;7.794;2023-04-01T16:23:59;331.77;;;299.20;;
53907;SDS011;40469;47.998;7.794;2023-04-01T16:26:36;325.83;;;292.65;;
53907;SDS011;40469;47.998;7.794;2023-04-01T16:29:22;333.77;;;300.33;;
53907;SDS011;40469;47.998;7.794;2023-04-01T16:32:17;293.83;;;264.30;;
53907;SDS011;40469;47.998;7.794;2023-04-01T16:37:46;302.73;;;272.45;;
53907;SDS011;40469;47.998;7.794;2023-04-01T16:40:22;329.45;;;296.88;;
53907;SDS011;40469;47.998;7.794;2023-04-01T16:45:53;304.88;;;271.92;;
53907;SDS011;40469;47.998;7.794;2023-04-01T16:48:42;303.05;;;269.20;;
53907;SDS011;40469;47.998;7.794;2023-04-01T16:51:22;389.63;;;278.73;;
53907;SDS011;40469;47.998;7.794;2023-04-01T16:54:05;381.92;;;276.98;;
53907;SDS011;40469;47.998;7.794;2023-04-01T16:56:56;412.55;;;303.33;;
53907;SDS011;40469;47.998;7.794;2023-04-01T17:02:04;462.40;;;311.60;;
53907;SDS011;40469;47.998;7.794;2023-04-01T17:04:47;451.70;;;307.52;;
53907;SDS011;40469;47.998;7.794;2023-04-01T17:07:35;323.60;;;292.63;;
53907;SDS011;40469;47.998;7.794;2023-04-01T17:10:33;292.90;;;262.85;;
53907;SDS011;40469;47.998;7.794;2023-04-01T17:15:57;287.92;;;259.63;;
53907;SDS011;40469;47.998;7.794;2023-04-01T17:29:26;339.20;;;307.55;;
53907;SDS011;40469;47.998;7.794;2023-04-01T17:40:44;293.48;;;263.95;;
53907;SDS011;40469;47.998;7.794;2023-04-01T17:46:46;320.30;;;289.90;;
53907;SDS011;40469;47.998;7.794;2023-04-01T17:48:49;297.80;;;270.92;;
53907;SDS011;40469;47.998;7.794;2023-04-01T17:51:33;281.88;;;253.77;;
53907;SDS011;40469;47.998;7.794;2023-04-01T18:14:12;310.90;;;280.08;;
53907;SDS011;40469;47.998;7.794;2023-04-01T18:22:05;325.63;;;292.23;;
53907;SDS011;40469;47.998;7.794;2023-04-01T18:24:33;376.48;;;285.30;;
53907;SDS011;40469;47.998;7.794;2023-04-01T18:29:46;427.20;;;290.38;;
53907;SDS011;40469;47.998;7.794;2023-04-01T18:32:23;413.33;;;265.50;;
53907;SDS011;40469;47.998;7.794;2023-04-01T18:35:22;356.77;;;300.35;;
53907;SDS011;40469;47.998;7.794;2023-04-01T18:38:13;413.05;;;273.50;;
53907;SDS011;40469;47.998;7.794;2023-04-01T18:40:49;417.15;;;278.65;;
53907;SDS011;40469;47.998;7.794;2023-04-01T18:43:39;451.13;;;278.88;;
53907;SDS011;40469;47.998;7.794;2023-04-01T18:46:41;447.05;;;290.33;;
53907;SDS011;40469;47.998;7.794;2023-04-01T18:49:16;463.63;;;264.00;;
53907;SDS011;40469;47.998;7.794;2023-04-01T18:54:31;396.00;;;253.23;;
53907;SDS011;40469;47.998;7.794;2023-04-01T18:57:00;434.50;;;279.20;;
53907;SDS011;40469;47.998;7.794;2023-04-01T18:59:32;372.77;;;271.52;;
53907;SDS011;40469;47.998;7.794;2023-04-01T19:04:45;269.17;;;231.52;;
53907;SDS011;40469;47.998;7.794;2023-04-01T19:07:29;264.55;;;229.25;;
53907;SDS011;40469;47.998;7.794;2023-04-01T19:10:16;297.23;;;264.58;;
53907;SDS011;40469;47.998;7.794;2023-04-01T19:12:59;290.40;;;258.17;;
53907;SDS011;40469;47.998;7.794;2023-04-01T19:21:22;269.48;;;236.05;;
53907;SDS011;40469;47.998;7.794;2023-04-01T19:29:38;324.20;;;292.55;;
53907;SDS011;40469;47.998;7.794;2023-04-01T19:32:55;300.65;;;269.50;;
53907;SDS011;40469;47.998;7.794;2023-04-01T19:38:31;261.95;;;233.38;;
53907;SDS011;40469;47.998;7.794;2023-04-01T19:41:10;262.75;;;234.70;;
53907;SDS011;40469;47.998;7.794;2023-04-01T19:43:57;296.58;;;265.15;;
53907;SDS011;40469;47.998;7.794;2023-04-01T19:46:28;318.05;;;287.90;;
53907;SDS011;40469;47.998;7.794;2023-04-01T19:51:25;293.73;;;263.42;;
53907;SDS011;40469;47.998;7.794;2023-04-01T19:56:41;254.60;;;226.77;;
53907;SDS011;40469;47.998;7.794;2023-04-01T20:02:26;301.98;;;271.83;;
53907;SDS011;40469;47.998;7.794;2023-04-01T20:04:58;285.45;;;254.40;;
53907;SDS011;40469;47.998;7.794;2023-04-01T20:07:41;259.17;;;230.52;;
53907;SDS011;40469;47.998;7.794;2023-04-01T20:10:17;254.75;;;228.18;;
53907;SDS011;40469;47.998;7.794;2023-04-01T20:17:52;256.25;;;227.05;;
53907;SDS011;40469;47.998;7.794;2023-04-01T20:20:26;295.45;;;266.17;;
53907;SDS011;40469;47.998;7.794;2023-04-01T20:25:51;297.15;;;267.70;;
53907;SDS011;40469;47.998;7.794;2023-04-01T20:36:13;263.55;;;235.93;;
53907;SDS011;40469;47.998;7.794;2023-04-01T20:50:02;262.00;;;235.27;;
53907;SDS011;40469;47.998;7.794;2023-04-01T20:55:54;241.23;;;215.82;;
53907;SDS011;40469;47.998;7.794;2023-04-01T21:14:59;248.13;;;222.98;;
53907;SDS011;40469;47.998;7.794;2023-04-01T21:17:46;289.35;;;262.20;;
53907;SDS011;40469;47.998;7.794;2023-04-01T21:32:21;292.10;;;264.50;;
53907;SDS011;40469;47.998;7.794;2023-04-01T21:35:03;287.95;;;261.73;;
53907;SDS011;40469;47.998;7.794;2023-04-01T21:43:43;295.27;;;268.23;;
53907;SDS011;40469;47.998;7.794;2023-04-01T21:49:47;289.73;;;263.70;;
53907;SDS011;40469;47.998;7.794;2023-04-01T21:55:26;296.23;;;270.52;;
53907;SDS011;40469;47.998;7.794;2023-04-01T22:04:48;257.58;;;234.65;;
53907;SDS011;40469;47.998;7.794;2023-04-01T22:07:35;242.48;;;220.57;;
53907;SDS011;40469;47.998;7.794;2023-04-01T22:10:13;246.80;;;224.57;;
53907;SDS011;40469;47.998;7.794;2023-04-01T22:17:48;302.38;;;276.45;;
53907;SDS011;40469;47.998;7.794;2023-04-01T22:22:59;268.80;;;248.13;;
53907;SDS011;40469;47.998;7.794;2023-04-01T22:32:34;281.67;;;255.60;;
53907;SDS011;40469;47.998;7.794;2023-04-01T22:40:06;277.85;;;252.10;;
53907;SDS011;40469;47.998;7.794;2023-04-01T22:42:52;238.02;;;213.80;;
53907;SDS011;40469;47.998;7.794;2023-04-01T22:48:23;283.00;;;256.17;;
53907;SDS011;40469;47.998;7.794;2023-04-01T22:56:37;423.67;;;245.68;;
53907;SDS011;40469;47.998;7.794;2023-04-01T22:59:14;438.10;;;261.00;;
53907;SDS011;40469;47.998;7.794;2023-04-01T23:04:45;426.05;;;253.18;;
53907;SDS011;40469;47.998;7.794;2023-04-01T23:07:26;444.10;;;260.02;;
53907;SDS011;40469;47.998;7.794;2023-04-01T23:10:01;434.08;;;244.88;;
53907;SDS011;40469;47.998;7.794;2023-04-01T23:12:30;443.30;;;260.67;;
53907;SDS011;40469;47.998;7.794;2023-04-01T23:14:58;444.30;;;261.52;;
53907;SDS011;40469;47.998;7.794;2023-04-01T23:17:28;430.02;;;244.38;;
53907;SDS011;40469;47.998;7.794;2023-04-01T23:22:55;430.83;;;246.93;;
53907;SDS011;40469;47.998;7.794;2023-04-01T23:25:52;428.63;;;252.68;;
53907;SDS011;40469;47.998;7.794;2023-04-01T23:28:45;449.70;;;271.43;;
53907;SDS011;40469;47.998;7.794;2023-04-01T23:33:59;447.00;;;249.30;;
53907;SDS011;40469;47.998;7.794;2023-04-01T23:36:30;451.42;;;253.35;;
53907;SDS011;40469;47.998;7.794;2023-04-01T23:39:05;453.27;;;252.55;;
53907;SDS011;40469;47.998;7.794;2023-04-01T23:41:38;451.15;;;251.43;;
53907;SDS011;40469;47.998;7.794;2023-04-01T23:44:05;449.35;;;257.00;;
53907;SDS011;40469;47.998;7.794;2023-04-01T23:46:35;446.23;;;239.77;;
53907;SDS011;40469;47.998;7.794;2023-04-01T23:49:04;465.13;;;260.67;;
53907;SDS011;40469;47.998;7.794;2023-04-01T23:51:37;448.77;;;243.40;;
53907;SDS011;40469;47.998;7.794;2023-04-01T23:54:17;450.88;;;248.07;;
53907;SDS011;40469;47.998;7.794;2023-04-01T23:56:48;450.52;;;246.90;;
53907;SDS011;40469;47.998;7.794;2023-04-01T23:59:19;454.65;;;258.02;;
